createdAt,value
2024-05-09T00:01:35.339Z,37.80
2024-05-09T00:06:40.773Z,38.56
2024-05-09T00:11:48.909Z,38.06
2024-05-09T00:16:54.378Z,38.92
2024-05-09T00:21:59.913Z,39.14
2024-05-09T00:27:09.052Z,39.30
2024-05-09T00:32:33.379Z,38.58
2024-05-09T00:37:38.834Z,38.84
2024-05-09T00:42:44.182Z,39.61
2024-05-09T00:47:52.579Z,39.64
2024-05-09T00:52:58.303Z,39.92
2024-05-09T00:58:03.958Z,40.03
2024-05-09T01:03:13.887Z,39.79
2024-05-09T01:08:20.083Z,39.81
2024-05-09T01:13:25.726Z,40.26
2024-05-09T01:18:34.070Z,40.23
2024-05-09T01:23:42.414Z,39.99
2024-05-09T01:28:48.024Z,39.73
2024-05-09T01:33:53.460Z,40.30
2024-05-09T01:39:02.534Z,41.14
2024-05-09T01:44:08.332Z,41.04
2024-05-09T01:49:13.898Z,40.47
2024-05-09T01:54:22.298Z,41.06
2024-05-09T01:59:27.815Z,40.45
2024-05-09T02:04:33.381Z,40.18
2024-05-09T02:09:41.432Z,40.61
2024-05-09T02:14:46.739Z,41.20
2024-05-09T02:19:52.350Z,41.05
2024-05-09T02:25:00.598Z,41.28
2024-05-09T02:30:12.091Z,41.00
2024-05-09T02:35:21.054Z,41.84
2024-05-09T02:40:36.406Z,41.16
2024-05-09T02:45:44.200Z,42.22
2024-05-09T02:50:49.784Z,41.60
2024-05-09T02:55:57.797Z,42.11
2024-05-09T03:01:03.436Z,41.89
2024-05-09T03:06:09.081Z,41.43
2024-05-09T03:11:23.750Z,41.40
2024-05-09T03:16:29.509Z,41.92
2024-05-09T03:21:35.497Z,41.46
2024-05-09T03:26:44.895Z,41.98
2024-05-09T03:31:51.367Z,41.86
2024-05-09T03:36:56.778Z,41.91
2024-05-09T03:42:04.777Z,41.96
2024-05-09T03:47:10.111Z,41.27
2024-05-09T03:52:15.434Z,41.18
2024-05-09T03:57:23.456Z,41.03
2024-05-09T04:02:28.878Z,41.90
2024-05-09T04:07:34.198Z,41.93
2024-05-09T04:12:42.140Z,42.04
2024-05-09T04:17:51.596Z,42.53
2024-05-09T04:22:57.259Z,41.64
2024-05-09T04:28:05.459Z,41.12
2024-05-09T04:33:13.541Z,40.69
2024-05-09T04:38:20.075Z,40.95
2024-05-09T04:43:28.434Z,40.46
2024-05-09T04:48:33.897Z,40.48
2024-05-09T04:53:39.403Z,40.78
2024-05-09T04:58:47.599Z,42.73
2024-05-09T05:03:53.387Z,42.72
2024-05-09T05:08:59.465Z,43.57
2024-05-09T05:14:07.674Z,42.08
2024-05-09T05:19:16.124Z,42.10
2024-05-09T05:24:23.120Z,42.12
2024-05-09T05:29:31.297Z,41.16
2024-05-09T05:34:36.924Z,40.58
2024-05-09T05:39:42.215Z,40.81
2024-05-09T05:44:50.211Z,40.26
2024-05-09T05:49:55.636Z,40.28
2024-05-09T05:55:01.015Z,39.56
2024-05-09T06:00:15.237Z,39.32
2024-05-09T06:05:27.727Z,39.20
2024-05-09T06:10:38.357Z,38.82
2024-05-09T06:15:48.533Z,37.53
2024-05-09T06:20:53.946Z,37.99
2024-05-09T06:25:59.488Z,38.09
2024-05-09T06:31:07.742Z,37.48
2024-05-09T06:36:13.347Z,37.03
2024-05-09T06:41:19.004Z,38.02
2024-05-09T06:46:27.082Z,36.53
2024-05-09T06:51:32.549Z,35.63
2024-05-09T06:56:38.229Z,35.00
2024-05-09T07:01:46.772Z,35.13
2024-05-09T07:06:52.487Z,34.36
2024-05-09T07:11:58.974Z,34.84
2024-05-09T07:17:08.020Z,33.91
2024-05-09T07:22:13.528Z,33.63
2024-05-09T07:27:18.978Z,34.05
2024-05-09T07:32:27.540Z,34.66
2024-05-09T07:37:33.045Z,34.58
2024-05-09T07:42:38.437Z,34.25
2024-05-09T07:49:12.481Z,33.04
2024-05-09T07:53:37.164Z,32.55
2024-05-09T07:58:37.238Z,32.13
2024-05-09T08:03:45.443Z,31.59
2024-05-09T08:08:51.083Z,31.28
2024-05-09T08:13:56.493Z,29.48
2024-05-09T08:19:04.628Z,27.65
2024-05-09T08:24:10.503Z,27.13
2024-05-09T08:29:17.230Z,28.03
2024-05-09T08:34:25.635Z,28.02
2024-05-09T08:39:32.270Z,27.20
2024-05-09T08:44:38.230Z,27.86
2024-05-09T08:49:46.327Z,26.68
2024-05-09T08:54:51.763Z,25.13
2024-05-09T08:59:57.525Z,25.59
2024-05-09T09:05:10.875Z,25.57
2024-05-09T09:10:24.963Z,26.24
2024-05-09T09:15:35.928Z,26.76
2024-05-09T09:20:44.028Z,23.60
2024-05-09T09:25:49.764Z,24.58
2024-05-09T09:30:55.224Z,24.05
2024-05-09T09:36:05.827Z,24.86
2024-05-09T09:41:13.370Z,25.31
2024-05-09T09:46:19.414Z,25.74
2024-05-09T09:51:28.308Z,23.58
2024-05-09T09:56:34.353Z,24.56
2024-05-09T10:01:40.092Z,23.45
2024-05-09T10:06:52.686Z,24.77
2024-05-09T10:12:00.376Z,24.53
2024-05-09T10:17:09.399Z,23.75
2024-05-09T10:22:17.656Z,24.51
2024-05-09T10:27:29.727Z,24.88
2024-05-09T10:32:41.797Z,24.45
2024-05-09T10:37:51.186Z,25.04
2024-05-09T10:42:57.483Z,25.18
2024-05-09T10:48:03.179Z,22.95
2024-05-09T10:53:11.348Z,24.10
2024-05-09T10:58:20.694Z,24.22
2024-05-09T11:03:27.578Z,21.57
2024-05-09T11:08:36.153Z,21.98
2024-05-09T11:13:42.252Z,25.40
2024-05-09T11:18:47.921Z,24.08
2024-05-09T11:23:56.110Z,20.97
2024-05-09T11:29:01.532Z,22.85
2024-05-09T11:34:08.273Z,25.35
2024-05-09T11:39:16.510Z,24.43
2024-05-09T11:44:22.068Z,24.27
2024-05-09T11:49:27.860Z,22.94
2024-05-09T11:54:35.943Z,22.77
2024-05-09T11:59:41.341Z,22.98
2024-05-09T12:04:46.949Z,24.12
2024-05-09T12:09:55.167Z,23.54
2024-05-09T12:15:00.593Z,22.87
2024-05-09T12:20:11.327Z,21.25
2024-05-09T12:25:25.234Z,22.01
2024-05-09T12:30:36.698Z,21.58
2024-05-09T12:35:47.356Z,22.81
2024-05-09T12:40:57.167Z,20.16
2024-05-09T12:46:03.430Z,22.01
2024-05-09T12:51:09.207Z,20.56
2024-05-09T12:56:17.310Z,20.12
2024-05-09T13:01:22.819Z,20.42
2024-05-09T13:06:28.274Z,20.08
2024-05-09T13:11:37.388Z,19.91
2024-05-09T13:16:42.924Z,21.20
2024-05-09T13:21:48.475Z,21.33
2024-05-09T13:26:56.531Z,20.45
2024-05-09T13:32:02.079Z,20.58
2024-05-09T13:37:08.167Z,18.62
2024-05-09T13:42:16.203Z,21.17
2024-05-09T13:47:22.260Z,18.66
2024-05-09T13:52:27.685Z,20.55
2024-05-09T13:57:35.796Z,19.63
2024-05-09T14:02:41.519Z,20.75
2024-05-09T14:07:47.366Z,20.86
2024-05-09T14:12:55.897Z,22.46
2024-05-09T14:18:01.644Z,21.64
2024-05-09T14:23:07.857Z,21.29
2024-05-09T14:28:15.843Z,21.77
2024-05-09T14:33:26.471Z,20.78
2024-05-09T14:38:32.033Z,20.53
2024-05-09T14:43:40.066Z,19.38
2024-05-09T14:48:45.973Z,19.72
2024-05-09T14:53:51.500Z,19.95
2024-05-09T14:58:59.576Z,19.93
2024-05-09T15:04:05.706Z,20.45
2024-05-09T15:09:11.249Z,19.66
2024-05-09T15:14:20.304Z,20.62
2024-05-09T15:19:25.988Z,22.23
2024-05-09T15:24:33.279Z,19.21
2024-05-09T15:29:41.446Z,19.65
2024-05-09T15:34:46.779Z,19.83
2024-05-09T15:39:52.318Z,19.34
2024-05-09T15:45:00.979Z,20.99
2024-05-09T15:50:11.879Z,20.83
2024-05-09T15:55:22.501Z,21.89
2024-05-09T16:00:38.521Z,21.76
2024-05-09T16:05:48.242Z,22.80
2024-05-09T16:10:54.735Z,23.30
2024-05-09T16:16:04.019Z,22.46
2024-05-09T16:21:09.591Z,22.22
2024-05-09T16:26:15.067Z,22.44
2024-05-09T16:31:23.187Z,22.45
2024-05-09T16:36:28.652Z,23.23
2024-05-09T16:41:34.192Z,23.04
2024-05-09T16:46:42.351Z,22.77
2024-05-09T16:51:47.984Z,24.30
2024-05-09T16:56:53.866Z,24.15
2024-05-09T17:02:02.356Z,23.61
2024-05-09T17:07:08.631Z,23.31
2024-05-09T17:12:14.096Z,23.63
2024-05-09T17:17:22.570Z,23.08
2024-05-09T17:22:28.170Z,23.34
2024-05-09T17:27:33.593Z,25.00
2024-05-09T17:32:41.776Z,25.31
2024-05-09T17:37:47.268Z,25.44
2024-05-09T17:42:52.692Z,24.46
2024-05-09T17:48:02.014Z,24.74
2024-05-09T17:53:08.405Z,25.44
2024-05-09T17:58:15.541Z,25.12
2024-05-09T18:03:25.801Z,25.80
2024-05-09T18:08:31.284Z,25.26
2024-05-09T18:13:36.735Z,25.92
2024-05-09T18:18:44.976Z,26.05
2024-05-09T18:23:52.117Z,26.63
2024-05-09T18:28:57.739Z,27.75
2024-05-09T18:34:05.934Z,29.23
2024-05-09T18:39:11.408Z,29.01
2024-05-09T18:44:17.798Z,29.12
2024-05-09T18:49:26.004Z,29.10
2024-05-09T18:54:31.830Z,29.57
2024-05-09T18:59:37.117Z,29.12
2024-05-09T19:04:45.581Z,29.78
2024-05-09T19:09:51.140Z,30.63
2024-05-09T19:14:56.562Z,30.95
2024-05-09T19:20:06.085Z,30.87
2024-05-09T19:25:11.764Z,31.70
2024-05-09T19:30:28.998Z,31.40
2024-05-09T19:35:44.463Z,32.73
2024-05-09T19:40:50.222Z,31.91
2024-05-09T19:45:55.926Z,32.92
2024-05-09T19:51:04.101Z,32.21
2024-05-09T19:56:09.952Z,33.11
2024-05-09T20:01:15.398Z,33.26
2024-05-09T20:06:26.234Z,33.23
2024-05-09T20:11:33.043Z,33.29
2024-05-09T20:16:38.649Z,34.13
2024-05-09T20:21:47.663Z,34.41
2024-05-09T20:26:53.135Z,34.87
2024-05-09T20:31:58.566Z,35.22
2024-05-09T20:37:06.956Z,35.18
2024-05-09T20:42:12.539Z,35.14
2024-05-09T20:47:18.751Z,35.54
2024-05-09T20:52:27.350Z,35.93
2024-05-09T20:57:32.897Z,36.51
2024-05-09T21:02:40.794Z,36.54
2024-05-09T21:07:48.924Z,35.94
2024-05-09T21:12:54.677Z,35.50
2024-05-09T21:18:00.315Z,36.73
2024-05-09T21:23:08.743Z,36.73
2024-05-09T21:28:14.869Z,36.70
2024-05-09T21:33:20.690Z,36.73
2024-05-09T21:38:28.964Z,37.36
2024-05-09T21:43:34.345Z,37.79
2024-05-09T21:48:40.066Z,37.23
2024-05-09T21:53:48.859Z,37.65
2024-05-09T21:58:54.343Z,38.18
2024-05-09T22:03:59.906Z,37.72
2024-05-09T22:09:08.010Z,37.52
2024-05-09T22:14:13.473Z,38.16
2024-05-09T22:19:18.941Z,38.66
2024-05-09T22:24:27.152Z,37.92
2024-05-09T22:29:32.909Z,38.32
2024-05-09T22:34:38.397Z,38.75
2024-05-09T22:39:46.412Z,38.98
2024-05-09T22:44:51.847Z,39.30
2024-05-09T22:49:57.576Z,40.07
2024-05-09T22:55:05.742Z,39.63
2024-05-09T23:00:16.109Z,39.26
2024-05-09T23:05:22.159Z,39.43
2024-05-09T23:10:35.992Z,41.42
2024-05-09T23:15:43.163Z,42.32
2024-05-09T23:20:48.748Z,41.26
2024-05-09T23:25:56.820Z,40.38
2024-05-09T23:31:02.272Z,40.48
2024-05-09T23:36:08.106Z,39.90
2024-05-09T23:41:16.202Z,40.34
2024-05-09T23:46:21.760Z,40.48
2024-05-09T23:51:27.285Z,40.76
2024-05-09T23:56:35.503Z,39.95
